Time;durP1;ratioP1;P1;durP2;ratioP2;P2;SDS_P1;SDS_P2;PMS_P1;PMS_P2;Temp;Humidity;BMP_temperature;BMP_pressure;BME280_temperature;BME280_humidity;BME280_pressure;Samples;Min_cycle;Max_cycle;Signal;HPM_P1;HPM_P2
2022/02/22 00:02:23;;;;;;;5.45;3.00;;;22.90;36.70;;;;;;6104177;28;80649;-64
2022/02/22 00:05:23;;;;;;;5.88;2.80;;;22.90;36.90;;;;;;6100921;28;83694;-64
2022/02/22 00:08:24;;;;;;;7.53;3.13;;;22.90;36.90;;;;;;6098638;28;81175;-67
2022/02/22 00:11:25;;;;;;;4.53;2.70;;;22.90;37.40;;;;;;6094529;28;81423;-66
2022/02/22 00:14:26;;;;;;;3.67;2.15;;;22.90;38.70;;;;;;6105667;28;81206;-65
2022/02/22 00:17:26;;;;;;;3.38;1.90;;;22.90;39.80;;;;;;6100178;28;81533;-63
2022/02/22 00:20:27;;;;;;;6.38;2.83;;;22.90;41.40;;;;;;6089709;28;80592;-63
2022/02/22 00:23:27;;;;;;;3.90;2.42;;;23.00;40.80;;;;;;6099310;28;83070;-62
2022/02/22 00:26:28;;;;;;;3.15;2.03;;;22.90;40.10;;;;;;6100887;28;83203;-62
2022/02/22 00:29:29;;;;;;;6.97;2.78;;;22.90;40.80;;;;;;6116604;28;80398;-62
2022/02/22 00:32:29;;;;;;;3.53;2.10;;;22.90;40.30;;;;;;6101125;28;80464;-62
2022/02/22 00:35:30;;;;;;;4.30;1.90;;;22.90;40.00;;;;;;6130032;28;80530;-62
2022/02/22 00:38:30;;;;;;;4.53;2.00;;;22.90;39.60;;;;;;6110665;28;80968;-62
2022/02/22 00:41:31;;;;;;;3.83;1.77;;;22.90;40.10;;;;;;6130622;28;81382;-63
2022/02/22 00:44:32;;;;;;;4.13;1.75;;;22.90;40.00;;;;;;6111438;28;81572;-61
2022/02/22 00:47:32;;;;;;;3.47;2.20;;;22.90;40.00;;;;;;6114141;28;80593;-62
2022/02/22 00:50:34;;;;;;;5.00;2.30;;;22.90;40.00;;;;;;6114353;28;81247;-62
2022/02/22 00:53:34;;;;;;;3.70;2.28;;;22.90;40.20;;;;;;6112397;28;80486;-62
2022/02/22 00:56:35;;;;;;;3.83;2.33;;;22.80;40.20;;;;;;6127537;28;80692;-62
2022/02/22 00:59:35;;;;;;;4.18;2.20;;;22.80;40.00;;;;;;6101244;28;83796;-62
2022/02/22 01:02:36;;;;;;;5.43;2.10;;;22.80;39.80;;;;;;6113493;28;80369;-62
2022/02/22 01:05:37;;;;;;;2.17;1.60;;;22.80;39.30;;;;;;6124185;28;80470;-61
2022/02/22 01:08:37;;;;;;;4.43;2.20;;;22.80;39.40;;;;;;6101652;28;81700;-62
2022/02/22 01:11:38;;;;;;;3.97;2.05;;;22.80;39.30;;;;;;6109704;28;80579;-62
2022/02/22 01:14:38;;;;;;;3.97;2.05;;;22.80;39.30;;;;;;6109870;28;80183;-62
2022/02/22 01:17:39;;;;;;;3.55;2.13;;;22.80;39.10;;;;;;6107217;28;81001;-62
2022/02/22 01:20:39;;;;;;;4.32;2.08;;;22.80;39.30;;;;;;6128388;28;80832;-62
2022/02/22 01:23:40;;;;;;;3.92;2.20;;;22.80;39.30;;;;;;6101224;28;81665;-62
2022/02/22 01:26:40;;;;;;;4.05;2.05;;;22.80;39.30;;;;;;6113271;28;80733;-61
2022/02/22 01:29:41;;;;;;;3.28;1.73;;;22.80;39.40;;;;;;6106155;28;82104;-62
2022/02/22 01:32:42;;;;;;;5.82;2.08;;;22.80;39.40;;;;;;6111808;28;80280;-62
2022/02/22 01:35:42;;;;;;;2.50;1.50;;;22.80;39.00;;;;;;6107885;28;81479;-62
2022/02/22 01:38:43;;;;;;;2.50;1.73;;;22.80;39.00;;;;;;6109250;28;80859;-62
2022/02/22 01:41:46;;;;;;;2.83;1.80;;;22.80;39.20;;;;;;6106987;28;81457;-62
2022/02/22 01:44:47;;;;;;;3.72;1.63;;;22.80;39.30;;;;;;6110940;28;80772;-62
2022/02/22 01:47:47;;;;;;;3.70;1.98;;;22.80;39.20;;;;;;6099770;28;81401;-62
2022/02/22 01:50:48;;;;;;;3.00;2.00;;;22.80;39.20;;;;;;6102502;28;81065;-62
2022/02/22 01:53:49;;;;;;;4.07;1.90;;;22.80;39.10;;;;;;6111877;28;82903;-63
2022/02/22 01:56:50;;;;;;;3.88;1.80;;;22.80;39.30;;;;;;6099098;28;82695;-63
2022/02/22 01:59:50;;;;;;;3.65;1.80;;;22.80;39.30;;;;;;6109024;28;80339;-63
2022/02/22 02:02:51;;;;;;;3.58;1.98;;;22.80;39.10;;;;;;6106104;28;81785;-63
2022/02/22 02:05:51;;;;;;;2.65;1.63;;;22.80;39.00;;;;;;6102592;28;80456;-63
2022/02/22 02:08:52;;;;;;;3.03;1.65;;;22.80;39.10;;;;;;6104823;28;81531;-62
2022/02/22 02:11:52;;;;;;;3.75;1.80;;;22.80;39.30;;;;;;6096057;28;80573;-63
2022/02/22 02:14:53;;;;;;;3.53;1.83;;;22.80;39.10;;;;;;6096277;28;80331;-62
2022/02/22 02:17:54;;;;;;;2.97;1.90;;;22.80;39.50;;;;;;6107224;28;83253;-62
2022/02/22 02:20:54;;;;;;;3.75;2.00;;;22.80;40.10;;;;;;6103702;28;82504;-63
2022/02/22 02:23:55;;;;;;;2.72;1.63;;;22.80;40.10;;;;;;6095661;28;80621;-63
2022/02/22 02:26:55;;;;;;;1.95;1.42;;;22.80;40.10;;;;;;6098299;28;82012;-62
2022/02/22 02:29:59;;;;;;;4.30;1.98;;;22.80;39.90;;;;;;6096583;28;80505;-62
2022/02/22 02:33:00;;;;;;;2.25;1.65;;;22.80;39.20;;;;;;6101084;28;81211;-62
2022/02/22 02:36:00;;;;;;;3.80;1.63;;;22.90;39.10;;;;;;6125461;28;81177;-62
2022/02/22 02:39:01;;;;;;;6.15;1.83;;;22.80;39.10;;;;;;6114589;28;80286;-62
2022/02/22 02:42:01;;;;;;;3.85;1.77;;;22.90;40.00;;;;;;6103905;28;81623;-62
2022/02/22 02:45:02;;;;;;;3.88;1.80;;;22.90;40.00;;;;;;6097621;28;82921;-62
2022/02/22 02:48:03;;;;;;;1.80;1.58;;;22.80;39.00;;;;;;6107639;28;80569;-62
2022/02/22 02:51:03;;;;;;;1.67;1.38;;;22.90;39.00;;;;;;6120696;28;81605;-62
2022/02/22 02:54:04;;;;;;;2.50;1.67;;;22.90;39.50;;;;;;6114718;28;80469;-62
2022/02/22 02:57:04;;;;;;;2.88;1.77;;;22.90;40.20;;;;;;6106968;28;80256;-63
2022/02/22 03:00:05;;;;;;;2.40;1.38;;;22.90;40.00;;;;;;6089437;28;81413;-62
2022/02/22 03:03:05;;;;;;;2.55;1.55;;;22.90;39.90;;;;;;6105926;28;80817;-63
2022/02/22 03:06:06;;;;;;;3.65;2.30;;;22.90;40.10;;;;;;6099180;28;80616;-62
2022/02/22 03:09:06;;;;;;;1.90;1.40;;;22.90;39.90;;;;;;6102078;28;80331;-63
2022/02/22 03:12:07;;;;;;;3.45;1.70;;;22.90;39.70;;;;;;6108302;28;80629;-62
2022/02/22 03:15:07;;;;;;;3.58;1.90;;;22.90;39.10;;;;;;6103370;28;80426;-63
2022/02/22 03:18:11;;;;;;;3.00;1.75;;;22.90;39.80;;;;;;6110181;28;80510;-63
2022/02/22 03:21:11;;;;;;;2.30;1.77;;;22.90;39.30;;;;;;6121342;28;81034;-63
2022/02/22 03:24:12;;;;;;;2.08;1.50;;;22.90;39.80;;;;;;6121886;28;80218;-62
2022/02/22 03:27:12;;;;;;;3.80;1.80;;;22.90;39.70;;;;;;6118143;28;80141;-62
2022/02/22 03:30:13;;;;;;;3.33;1.70;;;22.90;39.80;;;;;;6103753;28;80816;-62
2022/02/22 03:33:14;;;;;;;2.28;1.45;;;22.90;40.00;;;;;;6105578;28;80746;-62
2022/02/22 03:36:14;;;;;;;4.35;1.67;;;22.90;40.90;;;;;;6123580;28;80410;-63
2022/02/22 03:39:15;;;;;;;4.25;1.90;;;22.90;40.00;;;;;;6125684;28;80959;-62
2022/02/22 03:42:15;;;;;;;2.08;1.50;;;22.90;40.40;;;;;;6124627;28;80704;-62
2022/02/22 03:45:16;;;;;;;2.75;1.52;;;22.90;40.10;;;;;;6110706;28;81436;-63
2022/02/22 03:48:16;;;;;;;2.55;1.63;;;22.90;40.20;;;;;;6108743;28;82207;-63
2022/02/22 03:51:17;;;;;;;2.13;1.38;;;22.90;40.00;;;;;;6108349;28;82176;-63
2022/02/22 03:54:17;;;;;;;2.10;1.73;;;22.90;40.30;;;;;;6116261;28;80218;-62
2022/02/22 03:57:18;;;;;;;3.35;1.90;;;22.90;39.60;;;;;;6098401;28;81408;-64
2022/02/22 04:00:18;;;;;;;3.30;1.80;;;22.80;39.90;;;;;;6101768;28;80683;-62
2022/02/22 04:03:19;;;;;;;2.53;1.55;;;22.90;39.40;;;;;;6115780;28;80900;-63
2022/02/22 04:06:19;;;;;;;1.98;1.50;;;22.90;40.20;;;;;;6111737;28;82350;-63
2022/02/22 04:09:20;;;;;;;3.53;1.83;;;22.90;40.70;;;;;;6113546;28;81506;-63
2022/02/22 04:12:20;;;;;;;2.58;1.58;;;22.90;41.70;;;;;;6108242;28;80694;-63
2022/02/22 04:15:21;;;;;;;3.03;1.77;;;22.90;41.80;;;;;;6108248;28;82315;-63
2022/02/22 04:18:21;;;;;;;2.28;1.48;;;22.90;40.90;;;;;;6106731;28;80439;-63
2022/02/22 04:21:22;;;;;;;3.17;1.50;;;22.90;39.90;;;;;;6105810;28;80590;-62
2022/02/22 04:24:23;;;;;;;2.65;1.60;;;22.90;39.40;;;;;;6105261;28;81585;-62
2022/02/22 04:27:23;;;;;;;3.15;1.77;;;22.90;39.20;;;;;;6102479;28;82552;-63
2022/02/22 04:30:24;;;;;;;2.00;1.40;;;22.90;39.00;;;;;;6110652;28;80368;-63
2022/02/22 04:33:24;;;;;;;3.75;1.58;;;23.00;39.10;;;;;;6104614;28;80543;-63
2022/02/22 04:36:25;;;;;;;2.85;1.40;;;23.00;39.10;;;;;;6095768;28;87060;-63
2022/02/22 04:39:25;;;;;;;4.07;1.35;;;23.00;39.30;;;;;;6115731;28;80952;-63
2022/02/22 04:42:26;;;;;;;2.05;1.45;;;23.10;39.30;;;;;;6112963;28;80494;-62
2022/02/22 04:45:26;;;;;;;2.65;1.80;;;23.10;39.30;;;;;;6123423;28;80747;-62
2022/02/22 04:48:27;;;;;;;2.55;1.40;;;23.10;39.50;;;;;;6112454;28;80930;-63
2022/02/22 04:51:27;;;;;;;3.15;1.40;;;23.10;39.40;;;;;;6122695;28;80463;-63
2022/02/22 04:54:28;;;;;;;1.67;1.20;;;23.20;39.40;;;;;;6130072;28;80537;-62
2022/02/22 04:57:29;;;;;;;2.35;1.42;;;23.20;39.50;;;;;;6112158;28;81313;-63
2022/02/22 05:00:29;;;;;;;1.33;1.13;;;23.20;39.30;;;;;;6115056;28;80531;-64
2022/02/22 05:03:30;;;;;;;1.95;1.42;;;23.20;39.20;;;;;;6103715;28;80958;-65
2022/02/22 05:06:30;;;;;;;1.98;1.42;;;23.20;39.30;;;;;;6102927;28;80377;-64
2022/02/22 05:09:31;;;;;;;2.20;1.25;;;23.20;39.00;;;;;;6110883;28;82106;-62
2022/02/22 05:12:32;;;;;;;2.25;1.45;;;23.30;38.90;;;;;;6098638;28;80810;-66
2022/02/22 05:15:33;;;;;;;4.75;1.40;;;23.30;38.60;;;;;;6115659;28;81074;-66
2022/02/22 05:18:33;;;;;;;1.42;1.13;;;23.30;38.40;;;;;;6124021;28;80284;-62
2022/02/22 05:21:34;;;;;;;2.10;1.45;;;23.30;38.30;;;;;;6114766;28;80639;-63
2022/02/22 05:24:34;;;;;;;5.55;1.50;;;23.30;38.30;;;;;;6110755;28;80411;-61
2022/02/22 05:27:35;;;;;;;1.20;1.10;;;23.30;38.10;;;;;;6098912;28;80624;-61
2022/02/22 05:30:36;;;;;;;3.05;1.10;;;23.30;37.90;;;;;;6127327;28;80215;-63
2022/02/22 05:33:36;;;;;;;1.92;1.30;;;23.40;37.70;;;;;;6107967;28;80355;-61
2022/02/22 05:36:37;;;;;;;1.50;1.20;;;23.40;37.40;;;;;;6118403;28;82169;-61
2022/02/22 05:39:37;;;;;;;1.75;1.20;;;23.40;37.30;;;;;;6088994;28;80522;-60
2022/02/22 05:42:38;;;;;;;2.15;1.35;;;23.40;36.90;;;;;;6121278;28;80416;-60
2022/02/22 05:45:38;;;;;;;3.08;1.30;;;23.40;37.40;;;;;;6105976;28;80603;-61
2022/02/22 05:48:39;;;;;;;2.55;1.38;;;23.40;37.30;;;;;;6116882;28;80443;-63
2022/02/22 05:51:40;;;;;;;2.63;1.48;;;23.40;37.10;;;;;;6117999;28;80324;-61
2022/02/22 05:54:41;;;;;;;2.22;1.63;;;23.50;37.30;;;;;;6102541;28;80504;-60
2022/02/22 05:57:41;;;;;;;3.40;1.52;;;23.50;37.40;;;;;;6120861;28;80690;-60
2022/02/22 06:00:42;;;;;;;1.98;1.15;;;23.50;38.40;;;;;;6119359;28;80356;-61
2022/02/22 06:03:42;;;;;;;3.00;1.70;;;23.40;39.70;;;;;;6120420;28;80478;-63
2022/02/22 06:06:43;;;;;;;3.97;1.73;;;23.40;41.10;;;;;;6113109;28;80723;-64
2022/02/22 06:09:44;;;;;;;2.85;1.60;;;23.30;42.00;;;;;;6126808;28;80889;-64
2022/02/22 06:12:49;;;;;;;2.05;1.40;;;23.30;42.80;;;;;;6113655;28;80160;-63
2022/02/22 06:15:49;;;;;;;3.10;1.60;;;23.30;43.20;;;;;;6100700;28;80425;-63
2022/02/22 06:18:50;;;;;;;9.27;1.60;;;23.20;43.70;;;;;;6109979;28;81979;-62
2022/02/22 06:21:50;;;;;;;2.28;1.27;;;23.20;44.10;;;;;;6109922;28;85613;-63
2022/02/22 06:24:51;;;;;;;4.53;1.20;;;23.20;44.20;;;;;;6106523;28;80460;-62
2022/02/22 06:27:51;;;;;;;1.55;1.38;;;23.20;45.00;;;;;;6112422;28;80857;-63
2022/02/22 06:30:52;;;;;;;1.77;1.35;;;23.20;45.40;;;;;;6110340;28;81181;-64
2022/02/22 06:33:52;;;;;;;6.15;1.30;;;23.20;45.20;;;;;;6099485;28;80442;-62
2022/02/22 06:36:53;;;;;;;7.00;1.50;;;23.10;45.40;;;;;;6108102;28;80389;-63
2022/02/22 06:39:53;;;;;;;2.97;1.35;;;23.10;45.80;;;;;;6119942;28;80492;-62
2022/02/22 06:42:54;;;;;;;1.83;1.67;;;23.10;45.90;;;;;;6094562;28;80618;-62
2022/02/22 06:45:54;;;;;;;2.95;1.45;;;23.10;46.10;;;;;;6125651;28;80435;-62
2022/02/22 06:48:55;;;;;;;1.90;1.40;;;23.10;45.90;;;;;;6103119;28;80117;-60
2022/02/22 06:51:56;;;;;;;6.18;1.92;;;23.20;46.10;;;;;;6104888;28;81182;-61
2022/02/22 06:54:56;;;;;;;3.58;1.73;;;23.10;46.90;;;;;;6103203;28;80717;-68
2022/02/22 06:57:57;;;;;;;5.18;1.90;;;23.20;47.10;;;;;;6106406;28;80859;-60
2022/02/22 07:00:58;;;;;;;3.70;1.55;;;23.20;46.80;;;;;;6127104;28;80410;-60
2022/02/22 07:03:59;;;;;;;3.45;1.70;;;23.20;45.90;;;;;;6098258;28;80825;-60
2022/02/22 07:07:01;;;;;;;3.17;1.42;;;23.20;45.60;;;;;;6118095;28;80261;-60
2022/02/22 07:10:02;;;;;;;4.85;2.20;;;23.30;45.30;;;;;;6118433;28;80756;-64
2022/02/22 07:13:02;;;;;;;1.95;1.52;;;23.30;45.20;;;;;;6111446;28;80910;-60
2022/02/22 07:16:03;;;;;;;4.55;1.88;;;23.30;45.00;;;;;;6110296;28;80341;-59
2022/02/22 07:19:03;;;;;;;2.38;1.90;;;23.30;44.70;;;;;;6106677;28;80337;-59
2022/02/22 07:22:04;;;;;;;2.63;1.70;;;23.30;45.10;;;;;;6100354;28;80468;-59
2022/02/22 07:25:05;;;;;;;2.95;1.65;;;23.40;44.80;;;;;;6114388;28;81987;-60
2022/02/22 07:28:05;;;;;;;3.00;1.90;;;23.40;44.90;;;;;;6102994;28;80690;-60
2022/02/22 07:31:06;;;;;;;3.15;1.85;;;23.40;45.00;;;;;;6098431;28;80854;-59
2022/02/22 07:34:07;;;;;;;3.55;1.77;;;23.50;44.30;;;;;;6103633;28;83267;-60
2022/02/22 07:37:07;;;;;;;3.15;1.92;;;23.50;44.70;;;;;;6104894;28;80682;-59
2022/02/22 07:40:09;;;;;;;4.15;2.05;;;23.50;45.00;;;;;;6108167;28;80527;-59
2022/02/22 07:43:09;;;;;;;3.17;1.73;;;23.60;44.50;;;;;;6110786;28;80609;-60
2022/02/22 07:46:10;;;;;;;1.80;1.60;;;23.60;44.70;;;;;;6117583;28;80693;-59
2022/02/22 07:49:10;;;;;;;3.28;1.67;;;23.60;44.60;;;;;;6108305;28;81653;-60
2022/02/22 07:52:11;;;;;;;4.57;1.88;;;23.60;44.20;;;;;;6102547;28;81166;-60
2022/02/22 07:55:11;;;;;;;3.13;1.80;;;23.60;44.40;;;;;;6113932;28;80646;-60
2022/02/22 07:58:12;;;;;;;4.18;2.03;;;23.60;44.50;;;;;;6121335;28;80274;-59
2022/02/22 08:01:12;;;;;;;2.55;1.70;;;23.60;44.70;;;;;;6113459;28;80381;-60
2022/02/22 08:04:13;;;;;;;8.60;1.98;;;23.60;44.80;;;;;;6128438;28;81297;-59
2022/02/22 08:07:16;;;;;;;5.45;2.08;;;23.70;45.00;;;;;;6134909;28;80329;-60
2022/02/22 08:10:17;;;;;;;3.88;1.80;;;23.70;45.00;;;;;;6115707;28;80272;-60
2022/02/22 08:13:18;;;;;;;2.65;1.85;;;23.70;44.90;;;;;;6127512;28;80791;-61
2022/02/22 08:16:18;;;;;;;2.65;1.92;;;23.70;45.00;;;;;;6129215;28;80640;-60
2022/02/22 08:19:19;;;;;;;3.78;1.95;;;23.70;45.10;;;;;;6100949;28;80893;-64
2022/02/22 08:22:19;;;;;;;4.32;2.13;;;23.70;45.10;;;;;;6107633;28;81765;-62
2022/02/22 08:25:20;;;;;;;5.20;2.20;;;23.70;44.90;;;;;;6106885;28;80861;-60
2022/02/22 08:28:20;;;;;;;3.90;2.17;;;23.70;45.10;;;;;;6123640;28;80243;-60
2022/02/22 08:31:21;;;;;;;5.68;1.95;;;23.70;44.90;;;;;;6106519;28;80217;-60
2022/02/22 08:34:21;;;;;;;4.13;2.45;;;23.70;44.70;;;;;;6130489;28;80645;-61
2022/02/22 08:40:22;;;;;;;6.37;2.27;;;23.60;44.80;;;;;;6212704;23;105497;-57
2022/02/22 08:43:23;;;;;;;3.97;1.88;;;23.60;44.60;;;;;;6129988;28;80400;-59
2022/02/22 08:46:23;;;;;;;3.67;1.70;;;23.60;44.60;;;;;;6134079;28;80583;-58
2022/02/22 08:49:24;;;;;;;2.10;1.40;;;23.60;44.70;;;;;;6140834;28;80313;-58
2022/02/22 08:52:29;;;;;;;3.45;2.08;;;23.70;44.90;;;;;;6137176;28;80744;-60
2022/02/22 08:55:30;;;;;;;4.93;2.57;;;23.70;44.60;;;;;;6125782;28;82914;-60
2022/02/22 08:58:30;;;;;;;7.25;3.70;;;23.60;41.50;;;;;;6133822;28;81586;-61
2022/02/22 09:01:31;;;;;;;3.83;2.35;;;23.30;40.00;;;;;;6133292;28;81481;-61
2022/02/22 09:04:31;;;;;;;11.60;2.63;;;23.20;40.00;;;;;;6126483;28;80630;-60
2022/02/22 09:07:32;;;;;;;5.20;2.45;;;23.10;40.70;;;;;;6126124;28;81455;-61
2022/02/22 09:10:33;;;;;;;3.70;2.17;;;23.10;41.60;;;;;;6115417;28;80338;-60
2022/02/22 09:13:33;;;;;;;5.85;2.90;;;23.20;41.90;;;;;;6127439;28;80552;-62
2022/02/22 09:16:34;;;;;;;8.45;2.10;;;23.30;42.20;;;;;;6125372;28;80743;-62
2022/02/22 09:19:34;;;;;;;4.35;2.58;;;23.30;42.30;;;;;;6124391;28;80832;-60
2022/02/22 09:22:35;;;;;;;4.45;1.83;;;23.40;42.90;;;;;;6123423;28;82767;-61
2022/02/22 09:25:35;;;;;;;6.22;2.42;;;23.40;42.90;;;;;;6124613;28;81582;-61
2022/02/22 09:28:36;;;;;;;3.22;1.70;;;23.40;43.20;;;;;;6125526;28;82296;-62
2022/02/22 09:31:37;;;;;;;2.70;1.75;;;23.50;43.60;;;;;;6119313;28;81191;-61
2022/02/22 09:34:37;;;;;;;3.25;2.03;;;23.50;43.30;;;;;;6120868;28;80721;-61
2022/02/22 09:37:38;;;;;;;5.93;2.15;;;23.50;43.60;;;;;;6121844;28;80178;-61
2022/02/22 09:40:38;;;;;;;3.47;1.73;;;23.50;43.80;;;;;;6121704;28;82286;-61
2022/02/22 09:43:39;;;;;;;3.13;1.92;;;23.60;43.90;;;;;;6119154;28;80453;-61
2022/02/22 09:46:40;;;;;;;3.25;2.03;;;23.80;43.70;;;;;;6123652;28;80983;-61
2022/02/22 09:49:40;;;;;;;5.57;2.10;;;23.80;43.70;;;;;;6121256;28;80800;-61
2022/02/22 09:52:41;;;;;;;5.03;2.03;;;23.80;43.70;;;;;;6118220;28;81523;-61
2022/02/22 09:55:41;;;;;;;2.55;1.58;;;23.80;44.10;;;;;;6127892;28;81482;-61
2022/02/22 09:58:42;;;;;;;3.92;1.83;;;23.80;44.10;;;;;;6124516;28;81191;-61
2022/02/22 10:01:42;;;;;;;2.85;1.90;;;23.70;44.00;;;;;;6118952;28;80540;-61
2022/02/22 10:04:43;;;;;;;2.92;1.60;;;23.70;44.60;;;;;;6115358;28;80776;-61
2022/02/22 10:07:44;;;;;;;3.13;1.75;;;23.70;45.40;;;;;;6124696;28;81430;-60
2022/02/22 10:10:44;;;;;;;3.65;1.80;;;23.70;45.10;;;;;;6122433;28;80931;-60
2022/02/22 10:13:45;;;;;;;4.40;2.30;;;23.70;44.30;;;;;;6118078;28;87283;-61
2022/02/22 10:16:45;;;;;;;3.65;2.05;;;23.70;44.60;;;;;;6120976;28;80721;-61
2022/02/22 10:19:47;;;;;;;4.03;2.15;;;23.70;45.00;;;;;;6147218;22;82176;-60
2022/02/22 10:22:48;;;;;;;3.45;2.20;;;23.60;45.10;;;;;;6116349;28;81708;-61
2022/02/22 10:25:49;;;;;;;3.08;2.10;;;23.60;45.00;;;;;;6132204;28;81506;-61
2022/02/22 10:28:49;;;;;;;3.83;2.10;;;23.70;45.50;;;;;;6117830;28;81305;-60
2022/02/22 10:31:50;;;;;;;1.90;1.60;;;23.60;45.50;;;;;;6119830;28;88925;-61
2022/02/22 10:34:51;;;;;;;2.45;1.80;;;23.60;45.10;;;;;;6123036;28;80206;-61
2022/02/22 10:37:51;;;;;;;2.55;1.73;;;23.60;45.50;;;;;;6128099;28;81845;-61
2022/02/22 10:40:52;;;;;;;2.50;1.83;;;23.60;45.50;;;;;;6122835;28;80507;-61
2022/02/22 10:43:52;;;;;;;3.58;1.92;;;23.60;45.50;;;;;;6131725;28;80388;-61
2022/02/22 10:46:53;;;;;;;10.60;2.08;;;23.60;45.50;;;;;;6133907;28;80505;-59
2022/02/22 10:49:53;;;;;;;2.05;1.75;;;23.60;45.30;;;;;;6137032;28;80520;-60
2022/02/22 10:52:54;;;;;;;2.33;1.70;;;23.60;45.10;;;;;;6131723;28;80456;-64
2022/02/22 10:55:55;;;;;;;2.30;1.55;;;23.60;45.10;;;;;;6130987;28;80303;-62
2022/02/22 10:58:56;;;;;;;4.00;1.80;;;23.50;45.00;;;;;;6118810;28;81325;-60
2022/02/22 11:01:58;;;;;;;2.65;1.70;;;23.50;45.40;;;;;;6130840;28;82056;-60
2022/02/22 11:04:59;;;;;;;3.13;1.48;;;23.50;45.40;;;;;;6132961;28;80239;-62
2022/02/22 11:07:59;;;;;;;2.35;1.48;;;23.50;45.30;;;;;;6131569;28;83018;-62
2022/02/22 11:11:00;;;;;;;3.03;1.83;;;23.50;45.20;;;;;;6128212;28;83185;-61
2022/02/22 11:14:00;;;;;;;2.00;1.63;;;23.40;45.30;;;;;;6129091;28;80314;-61
2022/02/22 11:17:02;;;;;;;4.10;1.77;;;23.40;45.30;;;;;;6131100;28;80563;-62
2022/02/22 11:20:03;;;;;;;2.75;1.88;;;23.40;45.30;;;;;;6142951;28;80462;-61
2022/02/22 11:23:05;;;;;;;4.13;1.67;;;23.40;45.30;;;;;;6152644;28;80353;-61
2022/02/22 11:26:05;;;;;;;3.42;2.05;;;23.50;45.20;;;;;;6127216;28;80221;-61
2022/02/22 11:29:06;;;;;;;2.80;1.67;;;23.50;45.00;;;;;;6152866;28;80475;-61
2022/02/22 11:32:06;;;;;;;4.35;1.88;;;23.60;45.20;;;;;;6135582;28;82493;-61
2022/02/22 11:35:07;;;;;;;2.38;1.60;;;23.60;44.80;;;;;;6134847;28;80903;-62
2022/02/22 11:38:07;;;;;;;2.17;1.70;;;23.70;44.70;;;;;;6125901;28;80389;-61
2022/02/22 11:41:08;;;;;;;3.22;1.60;;;23.70;44.50;;;;;;6126356;28;80483;-61
2022/02/22 11:44:08;;;;;;;2.45;1.83;;;23.70;44.50;;;;;;6131322;28;81498;-61
2022/02/22 11:47:09;;;;;;;2.63;1.60;;;23.70;44.70;;;;;;6133564;28;80101;-60
2022/02/22 11:50:09;;;;;;;2.00;1.52;;;23.70;44.60;;;;;;6132131;28;82086;-61
2022/02/22 11:53:11;;;;;;;2.63;1.60;;;23.70;44.70;;;;;;6126496;28;80861;-60
2022/02/22 11:56:12;;;;;;;2.58;1.45;;;23.70;44.80;;;;;;6120664;28;81601;-62
2022/02/22 11:59:12;;;;;;;4.85;1.42;;;23.70;44.90;;;;;;6136810;28;80423;-61
2022/02/22 12:02:13;;;;;;;1.88;1.30;;;23.70;45.00;;;;;;6129383;28;80384;-61
2022/02/22 12:05:13;;;;;;;1.88;1.40;;;23.60;45.00;;;;;;6136344;28;81385;-65
2022/02/22 12:08:14;;;;;;;2.15;1.67;;;23.60;44.90;;;;;;6135415;28;80318;-61
2022/02/22 12:11:15;;;;;;;4.18;1.63;;;23.60;45.10;;;;;;6118040;28;80600;-61
2022/02/22 12:14:15;;;;;;;4.25;1.85;;;23.60;44.90;;;;;;6113711;28;80705;-61
2022/02/22 12:17:16;;;;;;;5.20;2.17;;;23.60;44.80;;;;;;6124638;28;80331;-61
2022/02/22 12:20:16;;;;;;;14.35;2.75;;;23.60;44.60;;;;;;6154096;28;82265;-61
2022/02/22 12:23:17;;;;;;;4.05;2.45;;;23.70;44.80;;;;;;6128050;28;81255;-60
2022/02/22 12:26:20;;;;;;;6.47;2.47;;;23.80;45.20;;;;;;6133512;28;81079;-61
2022/02/22 12:29:23;;;;;;;13.98;2.20;;;23.90;44.60;;;;;;6130096;28;80521;-60
2022/02/22 12:32:23;;;;;;;19.55;6.95;;;24.00;44.50;;;;;;6135042;28;81436;-61
2022/02/22 12:35:24;;;;;;;23.85;10.45;;;24.00;45.10;;;;;;6136083;28;81567;-60
2022/02/22 12:38:25;;;;;;;19.88;8.85;;;24.10;45.00;;;;;;6134643;28;83033;-61
2022/02/22 12:41:27;;;;;;;12.85;5.75;;;24.10;43.90;;;;;;6129090;28;83828;-60
2022/02/22 12:44:28;;;;;;;11.95;6.70;;;24.10;42.90;;;;;;6156140;28;80062;-59
2022/02/22 12:47:28;;;;;;;12.90;5.75;;;24.10;42.80;;;;;;6156510;28;80491;-59
2022/02/22 12:50:29;;;;;;;11.07;5.05;;;24.10;43.60;;;;;;6153186;28;81361;-59
2022/02/22 12:53:32;;;;;;;11.18;4.80;;;24.20;43.70;;;;;;6149278;28;81741;-62
2022/02/22 12:56:33;;;;;;;7.72;4.03;;;24.10;44.30;;;;;;6132000;28;80917;-58
2022/02/22 12:59:33;;;;;;;9.98;4.38;;;24.10;44.40;;;;;;6136643;28;80567;-61
2022/02/22 13:02:34;;;;;;;9.05;3.90;;;24.00;44.60;;;;;;6148127;28;80493;-60
2022/02/22 13:05:34;;;;;;;5.97;3.50;;;24.00;45.20;;;;;;6138347;28;80310;-61
2022/02/22 13:08:35;;;;;;;7.13;3.55;;;24.00;45.40;;;;;;6147256;28;80597;-62
2022/02/22 13:11:35;;;;;;;5.60;3.40;;;23.90;45.60;;;;;;6138967;28;80370;-60
2022/02/22 13:14:36;;;;;;;6.50;3.40;;;24.00;45.60;;;;;;6139224;28;81212;-60
2022/02/22 13:17:36;;;;;;;7.78;3.75;;;23.90;45.70;;;;;;6150492;28;80541;-62
2022/02/22 13:20:37;;;;;;;6.10;3.40;;;23.90;46.00;;;;;;6136612;28;80453;-62
2022/02/22 13:23:38;;;;;;;7.00;3.78;;;23.90;46.90;;;;;;6134515;28;80999;-59
2022/02/22 13:26:38;;;;;;;12.38;3.95;;;23.90;47.30;;;;;;6134755;28;80836;-62
2022/02/22 13:29:39;;;;;;;6.18;3.60;;;24.00;47.70;;;;;;6126849;28;80677;-60
2022/02/22 13:32:40;;;;;;;4.18;2.83;;;24.10;47.80;;;;;;6124519;28;81597;-62
2022/02/22 13:35:40;;;;;;;4.18;3.00;;;24.20;47.50;;;;;;6132565;28;81536;-60
2022/02/22 13:38:41;;;;;;;5.15;2.80;;;24.40;47.40;;;;;;6121750;28;80703;-62
2022/02/22 13:41:42;;;;;;;4.72;2.88;;;24.50;46.90;;;;;;6121393;28;80434;-61
2022/02/22 13:44:42;;;;;;;5.45;2.90;;;24.60;46.20;;;;;;6128327;28;80163;-61
2022/02/22 13:47:43;;;;;;;4.65;2.58;;;24.60;46.60;;;;;;6118720;28;81634;-61
2022/02/22 13:50:43;;;;;;;4.00;2.60;;;24.50;46.70;;;;;;6121531;28;80517;-61
2022/02/22 13:53:44;;;;;;;6.88;2.85;;;24.50;46.30;;;;;;6130339;28;81908;-61
2022/02/22 13:56:44;;;;;;;4.95;2.65;;;24.40;47.40;;;;;;6134465;28;80193;-62
2022/02/22 13:59:46;;;;;;;4.85;2.60;;;24.40;46.80;;;;;;6133015;28;81093;-60
2022/02/22 14:02:47;;;;;;;6.10;2.50;;;24.30;47.20;;;;;;6118200;28;81018;-62
2022/02/22 14:05:47;;;;;;;7.07;2.65;;;24.30;47.00;;;;;;6144326;28;81580;-61
2022/02/22 14:08:50;;;;;;;4.70;2.80;;;24.20;47.10;;;;;;6122307;28;81026;-62
2022/02/22 14:11:51;;;;;;;3.35;2.13;;;24.20;47.20;;;;;;6125479;28;81580;-60
2022/02/22 14:14:51;;;;;;;4.80;2.20;;;24.10;47.00;;;;;;6118606;28;80711;-61
2022/02/22 14:17:52;;;;;;;3.75;2.20;;;24.10;47.00;;;;;;6130791;28;80957;-61
2022/02/22 14:20:52;;;;;;;5.53;2.65;;;24.00;47.00;;;;;;6119835;28;80408;-61
2022/02/22 14:23:53;;;;;;;4.35;2.35;;;24.00;47.30;;;;;;6142377;28;80321;-61
2022/02/22 14:26:53;;;;;;;5.40;2.50;;;23.90;46.90;;;;;;6155738;28;80395;-61
2022/02/22 14:29:54;;;;;;;6.35;2.97;;;23.90;46.80;;;;;;6127522;28;80555;-62
2022/02/22 14:32:54;;;;;;;11.25;3.05;;;23.90;46.90;;;;;;6145862;28;80526;-63
2022/02/22 14:35:56;;;;;;;14.93;4.63;;;23.90;46.80;;;;;;6126268;28;80655;-60
2022/02/22 14:38:56;;;;;;;18.58;5.20;;;23.90;47.60;;;;;;6132231;28;80608;-60
2022/02/22 14:41:57;;;;;;;24.27;5.80;;;23.80;47.30;;;;;;6130788;28;80780;-62
2022/02/22 14:44:57;;;;;;;25.45;6.10;;;23.80;47.60;;;;;;6117936;28;80341;-61
2022/02/22 14:47:58;;;;;;;27.88;6.28;;;23.80;47.80;;;;;;6142821;28;81588;-61
2022/02/22 14:51:00;;;;;;;15.73;4.68;;;23.80;47.50;;;;;;6148780;28;80605;-62
2022/02/22 14:54:02;;;;;;;22.23;6.03;;;23.80;48.00;;;;;;6133939;28;80389;-62
2022/02/22 14:57:03;;;;;;;10.50;4.75;;;23.80;47.50;;;;;;6130411;28;80433;-62
2022/02/22 15:00:03;;;;;;;18.13;5.03;;;23.70;47.40;;;;;;6133667;28;80392;-62
2022/02/22 15:03:04;;;;;;;17.15;4.68;;;23.70;47.10;;;;;;6134432;28;84680;-62
2022/02/22 15:06:04;;;;;;;13.32;4.75;;;23.60;47.10;;;;;;6129161;28;81542;-63
2022/02/22 15:09:05;;;;;;;8.48;3.60;;;23.60;47.10;;;;;;6140556;28;87300;-63
2022/02/22 15:12:06;;;;;;;13.48;4.18;;;23.60;47.20;;;;;;6129242;28;80456;-62
2022/02/22 15:15:06;;;;;;;17.15;4.78;;;23.60;47.40;;;;;;6130296;28;82176;-62
2022/02/22 15:18:07;;;;;;;14.43;4.43;;;23.60;47.30;;;;;;6128363;28;81040;-62
2022/02/22 15:21:07;;;;;;;12.93;4.20;;;23.60;47.90;;;;;;6127360;28;80955;-62
2022/02/22 15:24:08;;;;;;;13.65;4.15;;;23.50;48.00;;;;;;6124787;28;80446;-61
2022/02/22 15:27:08;;;;;;;7.03;3.65;;;23.50;47.30;;;;;;6124285;28;80776;-61
2022/02/22 15:30:10;;;;;;;9.02;4.18;;;23.50;46.90;;;;;;6143330;28;80359;-61
2022/02/22 15:33:11;;;;;;;15.73;4.38;;;23.60;47.20;;;;;;6142571;28;80486;-61
2022/02/22 15:36:11;;;;;;;10.60;3.90;;;23.50;47.00;;;;;;6146649;28;80959;-61
2022/02/22 15:39:12;;;;;;;11.85;3.90;;;23.50;47.00;;;;;;6152719;28;80951;-61
2022/02/22 15:42:12;;;;;;;11.38;3.63;;;23.60;48.00;;;;;;6126127;28;80925;-61